createdAt,value
2019-01-10T00:00:30.674Z,3.10
2019-01-10T00:02:56.885Z,3.10
2019-01-10T00:05:23.198Z,3.10
2019-01-10T00:07:49.499Z,3.20
2019-01-10T00:10:16.305Z,3.20
2019-01-10T00:12:42.646Z,3.20
2019-01-10T00:15:12.058Z,3.10
2019-01-10T00:17:38.594Z,3.10
2019-01-10T00:20:07.611Z,3.10
2019-01-10T00:22:33.835Z,3.00
2019-01-10T00:25:08.641Z,3.00
2019-01-10T00:27:34.866Z,3.00
2019-01-10T00:30:01.179Z,3.10
2019-01-10T00:32:27.389Z,3.10
2019-01-10T00:34:53.598Z,3.10
2019-01-10T00:37:20.822Z,3.20
2019-01-10T00:39:47.202Z,3.20
2019-01-10T00:42:13.412Z,3.20
2019-01-10T00:44:40.017Z,3.10
2019-01-10T00:47:06.238Z,3.10
2019-01-10T00:49:32.466Z,3.10
2019-01-10T00:51:58.674Z,3.20
2019-01-10T00:54:24.895Z,3.20
2019-01-10T00:56:51.094Z,3.10
2019-01-10T00:59:17.318Z,3.00
2019-01-10T01:01:43.523Z,2.90
2019-01-10T01:04:09.859Z,2.90
2019-01-10T01:06:36.063Z,2.90
2019-01-10T01:09:04.884Z,2.90
2019-01-10T01:11:31.186Z,2.80
2019-01-10T01:13:57.415Z,2.80
2019-01-10T01:16:23.618Z,2.70
2019-01-10T01:18:50.174Z,2.80
2019-01-10T01:21:16.539Z,2.80
2019-01-10T01:23:42.735Z,2.80
2019-01-10T01:26:09.069Z,2.80
2019-01-10T01:28:35.275Z,2.80
2019-01-10T01:31:01.490Z,2.80
2019-01-10T01:33:27.693Z,2.80
2019-01-10T01:35:54.033Z,2.80
2019-01-10T01:38:20.238Z,2.80
2019-01-10T01:40:46.476Z,2.80
2019-01-10T01:43:12.698Z,2.80
2019-01-10T01:45:38.916Z,2.80
2019-01-10T01:48:05.243Z,2.80
2019-01-10T01:50:31.768Z,2.80
2019-01-10T01:52:58.091Z,2.90
2019-01-10T01:55:24.294Z,2.90
2019-01-10T01:57:50.628Z,2.80
2019-01-10T02:00:22.206Z,2.80
2019-01-10T02:02:48.532Z,2.80
2019-01-10T02:05:15.140Z,2.80
2019-01-10T02:07:41.445Z,2.70
2019-01-10T02:10:10.971Z,2.70
2019-01-10T02:12:37.376Z,2.80
2019-01-10T02:15:04.099Z,2.80
2019-01-10T02:17:30.299Z,2.80
2019-01-10T02:19:57.349Z,2.80
2019-01-10T02:22:23.702Z,2.80
2019-01-10T02:24:49.923Z,2.70
2019-01-10T02:27:16.131Z,2.80
2019-01-10T02:29:42.349Z,2.80
2019-01-10T02:32:08.943Z,2.80
2019-01-10T02:34:35.157Z,2.80
2019-01-10T02:37:01.361Z,2.80
2019-01-10T02:39:27.599Z,2.80
2019-01-10T02:41:54.407Z,2.70
2019-01-10T02:44:20.626Z,2.70
2019-01-10T02:46:46.966Z,2.70
2019-01-10T02:49:13.516Z,2.70
2019-01-10T02:51:39.735Z,2.70
2019-01-10T02:54:06.045Z,2.70
2019-01-10T02:56:32.372Z,2.70
2019-01-10T02:58:58.667Z,2.70
2019-01-10T03:01:25.135Z,2.70
2019-01-10T03:03:51.442Z,2.70
2019-01-10T03:06:17.759Z,2.70
2019-01-10T03:08:43.975Z,2.60
2019-01-10T03:11:10.278Z,2.60
2019-01-10T03:13:37.135Z,2.50
2019-01-10T03:16:03.817Z,2.50
2019-01-10T03:18:30.026Z,2.50
2019-01-10T03:20:56.339Z,2.50
2019-01-10T03:23:22.560Z,2.50
2019-01-10T03:25:48.761Z,2.50
2019-01-10T03:28:14.979Z,2.50
2019-01-10T03:30:41.175Z,2.50
2019-01-10T03:33:07.395Z,2.50
2019-01-10T03:35:33.706Z,2.50
2019-01-10T03:37:59.899Z,2.50
2019-01-10T03:40:26.146Z,2.50
2019-01-10T03:42:52.358Z,2.60
2019-01-10T03:45:19.288Z,2.50
2019-01-10T03:47:45.691Z,2.60
2019-01-10T03:50:14.309Z,2.60
2019-01-10T03:52:40.622Z,2.60
2019-01-10T03:55:07.326Z,2.60
2019-01-10T03:57:33.718Z,2.60
2019-01-10T03:59:59.914Z,2.70
2019-01-10T04:02:26.131Z,2.70
2019-01-10T04:04:52.618Z,2.70
2019-01-10T04:07:18.849Z,2.70
2019-01-10T04:09:45.045Z,2.80
2019-01-10T04:12:11.373Z,2.90
2019-01-10T04:14:37.574Z,2.80
2019-01-10T04:17:03.788Z,2.80
2019-01-10T04:19:29.990Z,2.60
2019-01-10T04:21:56.194Z,2.60
2019-01-10T04:24:22.531Z,2.50
2019-01-10T04:26:48.731Z,2.50
2019-01-10T04:29:14.951Z,2.60
2019-01-10T04:31:41.154Z,2.60
2019-01-10T04:34:07.375Z,2.50
2019-01-10T04:36:33.578Z,2.40
2019-01-10T04:38:59.987Z,2.40
2019-01-10T04:41:26.205Z,2.40
2019-01-10T04:43:52.403Z,2.30
2019-01-10T04:46:18.612Z,2.40
2019-01-10T04:48:44.809Z,2.40
2019-01-10T04:51:11.030Z,2.40
2019-01-10T04:53:37.235Z,2.50
2019-01-10T04:56:03.459Z,2.50
2019-01-10T04:58:29.653Z,2.40
2019-01-10T05:00:55.880Z,2.50
2019-01-10T05:03:22.131Z,2.40
2019-01-10T05:05:49.406Z,2.30
2019-01-10T05:08:15.612Z,2.40
2019-01-10T05:10:41.857Z,2.40
2019-01-10T05:13:08.051Z,2.40
2019-01-10T05:15:34.351Z,2.40
2019-01-10T05:18:00.567Z,2.50
2019-01-10T05:20:26.894Z,2.50
2019-01-10T05:22:53.131Z,2.60
2019-01-10T05:25:19.339Z,2.50
2019-01-10T05:27:45.660Z,2.50
2019-01-10T05:30:15.722Z,2.50
2019-01-10T05:32:42.094Z,2.50
2019-01-10T05:35:08.531Z,2.40
2019-01-10T05:37:34.754Z,2.40
2019-01-10T05:40:01.500Z,2.40
2019-01-10T05:42:27.706Z,2.40
2019-01-10T05:44:53.921Z,2.40
2019-01-10T05:47:20.155Z,2.40
2019-01-10T05:49:49.029Z,2.40
2019-01-10T05:52:15.236Z,2.40
2019-01-10T05:54:41.455Z,2.30
2019-01-10T05:57:07.658Z,2.30
2019-01-10T05:59:33.901Z,2.30
2019-01-10T06:02:00.195Z,2.30
2019-01-10T06:04:26.419Z,2.30
2019-01-10T06:06:52.622Z,2.30
2019-01-10T06:09:18.862Z,2.20
2019-01-10T06:11:47.011Z,2.30
2019-01-10T06:14:13.221Z,2.30
2019-01-10T06:16:39.456Z,2.30
2019-01-10T06:19:05.658Z,2.40
2019-01-10T06:21:31.885Z,2.30
2019-01-10T06:23:58.094Z,2.30
2019-01-10T06:26:24.314Z,2.30
2019-01-10T06:28:50.524Z,2.40
2019-01-10T06:31:16.787Z,2.40
2019-01-10T06:33:43.102Z,2.40
2019-01-10T06:36:09.326Z,2.40
2019-01-10T06:38:35.550Z,2.40
2019-01-10T06:41:01.910Z,2.50
2019-01-10T06:43:28.147Z,2.40
2019-01-10T06:45:54.466Z,2.30
2019-01-10T06:48:20.673Z,2.30
2019-01-10T06:50:46.875Z,2.30
2019-01-10T06:53:13.209Z,2.30
2019-01-10T06:55:39.410Z,2.30
2019-01-10T06:58:05.666Z,2.20
2019-01-10T07:00:34.852Z,2.20
2019-01-10T07:03:01.076Z,2.10
2019-01-10T07:05:27.274Z,2.10
2019-01-10T07:07:56.559Z,2.10
2019-01-10T07:10:26.258Z,2.10
2019-01-10T07:12:52.590Z,2.20
2019-01-10T07:15:19.085Z,2.10
2019-01-10T07:17:45.316Z,2.00
2019-01-10T07:20:11.859Z,2.10
2019-01-10T07:22:49.194Z,2.10
2019-01-10T07:25:15.530Z,2.10
2019-01-10T07:27:41.851Z,2.10
2019-01-10T07:30:11.783Z,2.10
2019-01-10T07:32:37.987Z,2.10
2019-01-10T07:35:05.843Z,2.10
2019-01-10T07:37:32.334Z,2.10
2019-01-10T07:39:58.576Z,1.90
2019-01-10T07:42:29.386Z,1.90
2019-01-10T07:45:02.597Z,2.00
2019-01-10T07:47:28.227Z,1.90
2019-01-10T07:49:56.561Z,1.80
2019-01-10T07:52:22.862Z,1.80
2019-01-10T07:54:49.365Z,1.90
2019-01-10T07:57:16.490Z,1.90
2019-01-10T07:59:42.843Z,1.90
2019-01-10T08:02:09.068Z,2.00
2019-01-10T08:04:35.306Z,1.90
2019-01-10T08:07:01.778Z,1.90
2019-01-10T08:09:27.990Z,2.00
2019-01-10T08:12:00.412Z,2.00
2019-01-10T08:14:22.368Z,2.00
2019-01-10T08:16:48.583Z,2.00
2019-01-10T08:19:14.790Z,1.90
2019-01-10T08:21:41.042Z,2.00
2019-01-10T08:24:07.453Z,2.10
2019-01-10T08:26:33.809Z,2.10
2019-01-10T08:29:00.024Z,2.10
2019-01-10T08:31:26.650Z,2.10
2019-01-10T08:33:52.879Z,2.10
2019-01-10T08:36:19.078Z,2.10
2019-01-10T08:38:45.316Z,2.20
2019-01-10T08:41:13.824Z,2.20
2019-01-10T08:43:39.730Z,2.20
2019-01-10T08:46:06.038Z,2.30
2019-01-10T08:48:32.258Z,2.20
2019-01-10T08:50:58.467Z,2.20
2019-01-10T08:53:24.683Z,2.20
2019-01-10T08:55:50.987Z,2.30
2019-01-10T08:58:17.206Z,2.30
2019-01-10T09:00:43.595Z,2.20
2019-01-10T09:03:09.922Z,2.20
2019-01-10T09:05:36.130Z,2.20
2019-01-10T09:08:11.254Z,2.30
2019-01-10T09:10:37.471Z,2.40
2019-01-10T09:13:04.179Z,2.50
2019-01-10T09:15:34.607Z,2.50
2019-01-10T09:17:59.019Z,2.40
2019-01-10T09:20:25.352Z,2.40
2019-01-10T09:22:51.546Z,2.40
2019-01-10T09:25:17.972Z,2.40
2019-01-10T09:27:44.481Z,2.30
2019-01-10T09:30:16.098Z,2.50
2019-01-10T09:32:42.516Z,2.50
2019-01-10T09:35:08.928Z,2.50
2019-01-10T09:37:35.154Z,2.50
2019-01-10T09:40:01.618Z,2.50
2019-01-10T09:42:27.959Z,2.50
2019-01-10T09:44:54.164Z,2.50
2019-01-10T09:47:20.379Z,2.60
2019-01-10T09:49:46.578Z,2.80
2019-01-10T09:52:12.798Z,2.80
2019-01-10T09:54:39.322Z,3.00
2019-01-10T09:57:05.618Z,2.90
2019-01-10T09:59:31.914Z,2.90
2019-01-10T10:01:58.118Z,3.00
2019-01-10T10:04:24.343Z,3.00
2019-01-10T10:06:50.547Z,3.10
2019-01-10T10:09:16.767Z,2.90
2019-01-10T10:11:43.171Z,3.20
2019-01-10T10:14:09.397Z,3.20
2019-01-10T10:16:35.602Z,3.30
2019-01-10T10:19:01.828Z,3.30
2019-01-10T10:21:28.132Z,3.20
2019-01-10T10:23:54.350Z,3.30
2019-01-10T10:26:20.562Z,3.20
2019-01-10T10:28:46.866Z,3.20
2019-01-10T10:31:13.099Z,3.20
2019-01-10T10:33:39.306Z,3.20
2019-01-10T10:36:05.728Z,3.30
2019-01-10T10:38:32.055Z,3.40
2019-01-10T10:40:58.266Z,3.50
2019-01-10T10:43:24.471Z,3.60
2019-01-10T10:45:50.791Z,3.70
2019-01-10T10:48:17.003Z,3.80
2019-01-10T10:50:43.332Z,3.80
2019-01-10T10:53:09.655Z,3.90
2019-01-10T10:55:38.753Z,3.80
2019-01-10T10:58:05.106Z,3.80
2019-01-10T11:00:31.306Z,3.90
2019-01-10T11:03:00.307Z,3.80
2019-01-10T11:05:26.709Z,3.80
2019-01-10T11:07:52.927Z,3.70
2019-01-10T11:10:19.634Z,3.80
2019-01-10T11:12:46.163Z,3.80
2019-01-10T11:15:12.462Z,3.80
2019-01-10T11:17:38.795Z,3.90
2019-01-10T11:20:11.334Z,4.20
2019-01-10T11:22:37.555Z,4.20
2019-01-10T11:25:07.554Z,4.00
2019-01-10T11:27:33.755Z,3.90
2019-01-10T11:29:59.982Z,3.80
2019-01-10T11:32:26.335Z,3.80
2019-01-10T11:34:57.179Z,3.70
2019-01-10T11:37:23.489Z,4.00
2019-01-10T11:39:49.715Z,4.00
2019-01-10T11:42:16.024Z,3.70
2019-01-10T11:44:42.243Z,3.80
2019-01-10T11:47:08.551Z,3.70
2019-01-10T11:49:34.801Z,3.60
2019-01-10T11:52:01.100Z,3.50
2019-01-10T11:54:27.295Z,3.50
2019-01-10T11:56:53.527Z,3.60
2019-01-10T11:59:19.734Z,3.50
2019-01-10T12:01:46.054Z,3.60
2019-01-10T12:04:12.367Z,3.70
2019-01-10T12:06:38.687Z,3.80
2019-01-10T12:09:05.501Z,3.90
2019-01-10T12:11:31.709Z,4.00
2019-01-10T12:13:57.912Z,4.10
2019-01-10T12:16:28.631Z,4.20
2019-01-10T12:18:59.174Z,4.40
2019-01-10T12:21:20.570Z,4.30
2019-01-10T12:23:49.353Z,4.30
2019-01-10T12:26:15.563Z,4.40
2019-01-10T12:28:41.891Z,4.40
2019-01-10T12:31:08.299Z,4.40
2019-01-10T12:33:34.526Z,4.40
2019-01-10T12:36:00.730Z,4.30
2019-01-10T12:38:26.946Z,4.30
2019-01-10T12:40:53.159Z,4.30
2019-01-10T12:43:19.367Z,4.30
2019-01-10T12:45:45.584Z,4.30
2019-01-10T12:48:12.051Z,4.10
2019-01-10T12:50:38.559Z,4.00
2019-01-10T12:53:04.858Z,3.90
2019-01-10T12:55:31.287Z,3.90
2019-01-10T12:57:57.486Z,4.10
2019-01-10T13:00:24.355Z,3.90
2019-01-10T13:02:51.662Z,3.70
2019-01-10T13:05:18.072Z,3.50
2019-01-10T13:07:44.318Z,3.50
2019-01-10T13:10:13.830Z,3.50
2019-01-10T13:12:40.252Z,3.50
2019-01-10T13:15:09.628Z,3.60
2019-01-10T13:17:54.859Z,3.60
2019-01-10T13:20:21.285Z,3.30
2019-01-10T13:22:47.726Z,3.30
2019-01-10T13:25:15.730Z,3.40
2019-01-10T13:27:42.263Z,3.40
2019-01-10T13:30:16.702Z,3.50
2019-01-10T13:32:43.143Z,3.50
2019-01-10T13:35:10.751Z,3.60
2019-01-10T13:37:36.979Z,3.60
2019-01-10T13:40:08.063Z,3.50
2019-01-10T13:42:34.268Z,3.70
2019-01-10T13:45:00.786Z,3.60
2019-01-10T13:47:27.086Z,3.60
2019-01-10T13:49:53.571Z,3.60
2019-01-10T13:52:20.671Z,3.60
2019-01-10T13:54:46.994Z,3.50
2019-01-10T13:57:13.442Z,3.60
2019-01-10T13:59:39.666Z,3.60
2019-01-10T14:02:06.071Z,3.70
2019-01-10T14:04:32.266Z,3.80
2019-01-10T14:06:58.488Z,3.80
2019-01-10T14:09:24.692Z,3.70
2019-01-10T14:11:51.006Z,3.70
2019-01-10T14:14:17.211Z,3.60
2019-01-10T14:16:43.430Z,3.60
2019-01-10T14:19:09.633Z,3.50
2019-01-10T14:21:36.846Z,3.60
2019-01-10T14:24:03.254Z,3.70
2019-01-10T14:26:29.582Z,3.60
2019-01-10T14:28:56.074Z,3.70
2019-01-10T14:31:25.082Z,3.80
2019-01-10T14:33:51.323Z,4.00
2019-01-10T14:36:17.624Z,4.00
2019-01-10T14:38:43.833Z,4.00
2019-01-10T14:41:10.139Z,3.90
2019-01-10T14:43:36.355Z,3.60
2019-01-10T14:46:02.666Z,3.70
2019-01-10T14:48:28.892Z,3.60
2019-01-10T14:50:55.406Z,3.70
2019-01-10T14:53:21.706Z,3.60
2019-01-10T14:55:47.935Z,3.50
2019-01-10T14:58:14.134Z,3.40
2019-01-10T15:00:40.750Z,3.50
2019-01-10T15:03:06.962Z,3.50
2019-01-10T15:05:34.566Z,3.50
2019-01-10T15:08:01.182Z,3.60
2019-01-10T15:10:27.750Z,3.70
2019-01-10T15:12:53.967Z,3.60
2019-01-10T15:15:21.183Z,3.50
2019-01-10T15:17:47.486Z,3.50
2019-01-10T15:20:20.890Z,3.40
2019-01-10T15:22:47.214Z,3.40
2019-01-10T15:25:13.437Z,3.40
2019-01-10T15:27:39.754Z,3.60
2019-01-10T15:30:09.786Z,3.50
2019-01-10T15:32:36.212Z,3.40
2019-01-10T15:35:03.813Z,3.40
2019-01-10T15:37:30.034Z,3.40
2019-01-10T15:39:57.043Z,3.30
2019-01-10T15:42:23.262Z,3.40
2019-01-10T15:44:49.467Z,3.30
2019-01-10T15:47:19.792Z,3.20
2019-01-10T15:49:43.792Z,3.20
2019-01-10T15:52:10.003Z,3.20
2019-01-10T15:54:36.223Z,3.10
2019-01-10T15:57:02.626Z,3.00
2019-01-10T15:59:28.858Z,3.10
2019-01-10T16:01:55.054Z,3.10
2019-01-10T16:04:21.487Z,3.10
2019-01-10T16:06:47.687Z,3.00
2019-01-10T16:09:14.254Z,3.00
2019-01-10T16:11:40.462Z,3.10
2019-01-10T16:14:06.685Z,3.10
2019-01-10T16:16:32.990Z,3.10
2019-01-10T16:18:59.194Z,3.10
2019-01-10T16:21:25.418Z,3.10
2019-01-10T16:23:51.642Z,3.20
2019-01-10T16:26:17.954Z,3.20
2019-01-10T16:28:44.178Z,3.20
2019-01-10T16:31:10.407Z,3.10
2019-01-10T16:33:36.602Z,3.20
2019-01-10T16:36:03.121Z,3.20
2019-01-10T16:38:29.323Z,3.20
2019-01-10T16:40:56.410Z,3.10
2019-01-10T16:43:22.621Z,3.20
2019-01-10T16:45:48.831Z,3.20
2019-01-10T16:48:15.298Z,3.20
2019-01-10T16:50:41.587Z,3.20
2019-01-10T16:53:07.794Z,3.10
2019-01-10T16:55:34.342Z,3.20
2019-01-10T16:58:00.570Z,3.20
2019-01-10T17:00:29.222Z,3.20
2019-01-10T17:02:55.650Z,3.20
2019-01-10T17:05:23.346Z,3.20
2019-01-10T17:07:49.674Z,3.10
2019-01-10T17:10:16.107Z,3.20
2019-01-10T17:12:42.315Z,3.20
2019-01-10T17:15:10.390Z,3.10
2019-01-10T17:17:37.720Z,3.10
2019-01-10T17:20:10.586Z,3.00
2019-01-10T17:22:36.794Z,3.10
2019-01-10T17:25:04.728Z,3.10
2019-01-10T17:27:31.034Z,3.10
2019-01-10T17:29:57.278Z,3.00
2019-01-10T17:32:23.943Z,3.10
2019-01-10T17:34:51.238Z,3.10
2019-01-10T17:37:17.675Z,3.10
2019-01-10T17:39:43.875Z,3.20
2019-01-10T17:42:10.105Z,3.00
2019-01-10T17:44:36.306Z,3.20
2019-01-10T17:47:02.522Z,3.20
2019-01-10T17:49:28.849Z,3.20
2019-01-10T17:51:55.150Z,3.20
2019-01-10T17:54:21.421Z,3.20
2019-01-10T17:56:47.667Z,3.30
2019-01-10T17:59:13.878Z,3.30
2019-01-10T18:01:41.363Z,3.10
2019-01-10T18:04:07.716Z,3.20
2019-01-10T18:06:34.010Z,3.30
2019-01-10T18:09:00.234Z,3.20
2019-01-10T18:11:26.442Z,3.30
2019-01-10T18:13:52.830Z,3.20
2019-01-10T18:16:19.030Z,3.20
2019-01-10T18:18:45.246Z,3.20
2019-01-10T18:21:14.982Z,3.20
2019-01-10T18:23:39.717Z,3.20
2019-01-10T18:26:06.286Z,3.20
2019-01-10T18:28:32.727Z,3.20
2019-01-10T18:30:59.768Z,3.10
2019-01-10T18:33:26.144Z,3.20
2019-01-10T18:35:52.375Z,3.20
2019-01-10T18:38:18.573Z,3.20
2019-01-10T18:40:44.802Z,3.10
2019-01-10T18:43:11.030Z,3.10
2019-01-10T18:45:37.327Z,3.10
2019-01-10T18:48:03.667Z,3.20
2019-01-10T18:50:30.015Z,3.10
2019-01-10T18:52:56.219Z,3.20
2019-01-10T18:55:22.523Z,3.10
2019-01-10T18:57:48.849Z,3.10
2019-01-10T19:00:23.906Z,3.10
2019-01-10T19:02:50.351Z,3.00
2019-01-10T19:05:16.562Z,3.10
2019-01-10T19:07:42.881Z,3.10
2019-01-10T19:10:12.600Z,3.10
2019-01-10T19:12:38.914Z,3.10
2019-01-10T19:15:06.927Z,3.10
2019-01-10T19:17:33.158Z,3.10
2019-01-10T19:19:59.363Z,3.10
2019-01-10T19:22:25.583Z,3.10
2019-01-10T19:24:51.811Z,3.10
2019-01-10T19:27:18.011Z,3.20
2019-01-10T19:29:44.257Z,3.20
2019-01-10T19:32:10.463Z,3.20
2019-01-10T19:34:36.755Z,3.10
2019-01-10T19:37:03.169Z,3.20
2019-01-10T19:39:29.387Z,3.20
2019-01-10T19:41:55.593Z,3.20
2019-01-10T19:44:21.811Z,3.20
2019-01-10T19:46:48.019Z,3.20
2019-01-10T19:49:14.247Z,3.20
2019-01-10T19:51:40.454Z,3.30
2019-01-10T19:54:06.747Z,3.30
2019-01-10T19:56:33.077Z,3.30
2019-01-10T19:58:59.286Z,3.30
2019-01-10T20:01:25.810Z,3.30
2019-01-10T20:03:52.396Z,3.20
2019-01-10T20:06:18.621Z,3.20
2019-01-10T20:08:45.738Z,3.30
2019-01-10T20:11:12.166Z,3.20
2019-01-10T20:13:38.366Z,3.20
2019-01-10T20:16:04.998Z,3.30
2019-01-10T20:18:31.209Z,3.30
2019-01-10T20:20:57.414Z,3.30
2019-01-10T20:23:23.734Z,3.30
2019-01-10T20:25:49.963Z,3.30
2019-01-10T20:28:16.195Z,3.30
2019-01-10T20:30:42.423Z,3.30
2019-01-10T20:33:09.055Z,3.30
2019-01-10T20:35:35.643Z,3.30
2019-01-10T20:38:01.999Z,3.30
2019-01-10T20:40:28.406Z,3.40
2019-01-10T20:42:54.622Z,3.40
2019-01-10T20:45:21.217Z,3.40
2019-01-10T20:47:47.427Z,3.40
2019-01-10T20:50:15.066Z,3.30
2019-01-10T20:52:41.369Z,3.30
2019-01-10T20:55:13.183Z,3.20
2019-01-10T20:57:39.391Z,3.20
2019-01-10T21:00:09.726Z,3.10
2019-01-10T21:02:35.946Z,3.10
2019-01-10T21:05:04.558Z,3.20
2019-01-10T21:07:30.795Z,3.00
2019-01-10T21:09:57.006Z,3.10
2019-01-10T21:12:23.336Z,3.10
2019-01-10T21:14:49.947Z,3.00
2019-01-10T21:17:16.171Z,3.10
2019-01-10T21:19:45.115Z,3.00
2019-01-10T21:22:11.439Z,3.00
2019-01-10T21:24:37.637Z,3.00
2019-01-10T21:27:03.871Z,3.10
2019-01-10T21:29:30.095Z,3.10
2019-01-10T21:31:56.303Z,3.10
2019-01-10T21:34:22.527Z,3.20
2019-01-10T21:36:48.806Z,3.20
2019-01-10T21:39:15.026Z,3.30
2019-01-10T21:41:41.235Z,3.20
2019-01-10T21:44:07.747Z,3.30
2019-01-10T21:46:33.952Z,3.30
2019-01-10T21:49:00.175Z,3.20
2019-01-10T21:51:26.414Z,3.30
2019-01-10T21:53:52.942Z,3.20
2019-01-10T21:56:19.145Z,3.30
2019-01-10T21:58:45.376Z,3.20
2019-01-10T22:01:11.720Z,3.20
2019-01-10T22:03:37.991Z,3.20
2019-01-10T22:06:04.419Z,3.20
2019-01-10T22:08:30.626Z,3.30
2019-01-10T22:10:56.922Z,3.30
2019-01-10T22:13:43.070Z,3.20
2019-01-10T22:16:09.445Z,3.30
2019-01-10T22:18:55.577Z,3.40
2019-01-10T22:21:21.798Z,3.40
2019-01-10T22:23:48.011Z,3.20
2019-01-10T22:26:14.237Z,3.20
2019-01-10T22:28:40.450Z,3.20
2019-01-10T22:31:07.476Z,3.30
2019-01-10T22:33:33.977Z,3.30
2019-01-10T22:36:01.643Z,3.30
2019-01-10T22:38:27.843Z,3.30
2019-01-10T22:40:54.046Z,3.30
2019-01-10T22:43:20.265Z,3.20
2019-01-10T22:45:46.475Z,3.20
2019-01-10T22:48:12.699Z,3.20
2019-01-10T22:50:38.917Z,3.20
2019-01-10T22:53:05.133Z,3.20
2019-01-10T22:55:31.536Z,3.30
2019-01-10T22:57:57.879Z,3.20
2019-01-10T23:00:29.803Z,3.20
2019-01-10T23:03:05.903Z,3.20
2019-01-10T23:05:32.111Z,3.20
2019-01-10T23:07:58.414Z,3.10
2019-01-10T23:10:24.640Z,3.10
2019-01-10T23:12:50.952Z,3.10
2019-01-10T23:15:28.075Z,3.10
2019-01-10T23:17:54.374Z,3.10
2019-01-10T23:20:20.598Z,3.10
2019-01-10T23:22:46.806Z,3.00
2019-01-10T23:25:13.027Z,3.10
2019-01-10T23:27:43.430Z,3.10
2019-01-10T23:30:10.575Z,3.00
2019-01-10T23:32:36.876Z,3.00
2019-01-10T23:35:03.999Z,3.00
2019-01-10T23:37:30.197Z,3.00
2019-01-10T23:39:56.442Z,2.90
2019-01-10T23:42:22.745Z,2.90
2019-01-10T23:44:49.066Z,2.90
2019-01-10T23:47:15.291Z,2.90
2019-01-10T23:49:41.490Z,2.90
2019-01-10T23:52:07.827Z,2.90
2019-01-10T23:54:34.030Z,3.00
2019-01-10T23:57:00.251Z,2.90
2019-01-10T23:59:26.454Z,3.00
